Time;durP1;ratioP1;P1;durP2;ratioP2;P2;SDS_P1;SDS_P2;PMS_P1;PMS_P2;Temp;Humidity;BMP_temperature;BMP_pressure;BME280_temperature;BME280_humidity;BME280_pressure;Samples;Min_cycle;Max_cycle;Signal;HPM_P1;HPM_P2
2023/11/07 00:00:00;;;;;;;1.17;0.40;;;7.60;99.90;;;;;;6216770;22;20023;-81
2023/11/07 00:02:27;;;;;;;0.68;0.50;;;7.50;1.00;;;;;;6239709;22;20030;-78
2023/11/07 00:04:55;;;;;;;0.40;0.40;;;7.50;1.00;;;;;;6214437;22;20015;-77
2023/11/07 00:07:23;;;;;;;0.45;0.40;;;7.50;1.00;;;;;;6243102;22;20027;-81
2023/11/07 00:09:50;;;;;;;2.00;0.57;;;7.50;1.00;;;;;;6219706;22;20015;-79
2023/11/07 00:12:17;;;;;;;1.23;0.50;;;7.50;1.00;;;;;;6244111;22;20508;-81
2023/11/07 00:14:45;;;;;;;0.40;0.35;;;7.50;10.90;;;;;;6243807;22;20016;-78
2023/11/07 00:17:12;;;;;;;0.52;0.40;;;7.40;1.00;;;;;;6218831;22;20090;-78
2023/11/07 00:19:39;;;;;;;0.65;0.60;;;7.40;1.00;;;;;;6214604;22;20035;-81
2023/11/07 00:22:06;;;;;;;0.75;0.50;;;7.30;1.00;;;;;;6265732;22;20380;-81
2023/11/07 00:24:33;;;;;;;0.98;0.30;;;7.30;1.00;;;;;;6218523;22;20801;-81
2023/11/07 00:27:01;;;;;;;0.52;0.30;;;7.20;1.00;;;;;;6243955;22;20103;-81
2023/11/07 00:29:28;;;;;;;0.60;0.40;;;7.20;96.00;;;;;;6269363;22;20023;-77
2023/11/07 00:31:55;;;;;;;0.32;0.32;;;7.20;99.90;;;;;;6214523;22;20087;-78
2023/11/07 00:34:23;;;;;;;1.00;0.38;;;7.20;99.90;;;;;;6240589;22;20023;-79
2023/11/07 00:36:51;;;;;;;0.50;0.38;;;7.20;99.90;;;;;;6241177;22;20020;-78
2023/11/07 00:39:18;;;;;;;0.45;0.40;;;7.10;99.90;;;;;;6242791;22;20453;-77
2023/11/07 00:41:44;;;;;;;0.50;0.30;;;7.10;99.90;;;;;;6243774;22;20015;-78
2023/11/07 00:44:11;;;;;;;0.70;0.38;;;7.10;99.90;;;;;;6219738;22;20332;-80
2023/11/07 00:46:38;;;;;;;0.88;0.40;;;7.10;1.00;;;;;;6242756;22;20391;-81
2023/11/07 00:49:05;;;;;;;0.45;0.30;;;7.00;1.00;;;;;;6218837;22;20051;-81
2023/11/07 00:51:32;;;;;;;0.60;0.38;;;7.00;1.00;;;;;;6219220;22;20024;-81
2023/11/07 00:53:59;;;;;;;0.20;0.20;;;6.90;1.00;;;;;;6219776;22;20019;-80
2023/11/07 00:56:26;;;;;;;0.45;0.35;;;6.90;73.40;;;;;;6243635;22;20094;-81
2023/11/07 00:58:53;;;;;;;0.35;0.25;;;6.90;99.90;;;;;;6219154;22;20024;-80
2023/11/07 01:01:20;;;;;;;0.30;0.30;;;6.90;99.90;;;;;;6217592;22;20024;-80
2023/11/07 01:03:47;;;;;;;0.52;0.32;;;6.90;99.90;;;;;;6214924;22;20020;-80
2023/11/07 01:06:14;;;;;;;1.00;0.63;;;7.00;99.90;;;;;;6239408;22;20439;-79
2023/11/07 01:08:43;;;;;;;0.32;0.28;;;6.90;1.00;;;;;;6243992;22;20015;-78
2023/11/07 01:11:09;;;;;;;0.75;0.50;;;6.90;1.00;;;;;;6243914;22;20085;-79
2023/11/07 01:13:38;;;;;;;0.98;0.50;;;6.90;1.00;;;;;;6243304;22;20483;-79
2023/11/07 01:16:05;;;;;;;0.63;0.32;;;7.00;87.80;;;;;;6218841;22;20069;-81
2023/11/07 01:18:32;;;;;;;0.50;0.38;;;7.00;99.90;;;;;;6243516;22;20066;-79
2023/11/07 01:20:59;;;;;;;0.25;0.20;;;7.00;99.90;;;;;;6219262;22;20020;-79
2023/11/07 01:23:28;;;;;;;1.85;0.60;;;7.00;99.90;;;;;;6243845;22;20457;-78
2023/11/07 01:25:55;;;;;;;1.50;0.50;;;7.00;99.90;;;;;;6244199;22;20055;-80
2023/11/07 01:28:22;;;;;;;0.30;0.20;;;7.10;99.90;;;;;;6218389;22;20020;-77
2023/11/07 01:30:49;;;;;;;0.50;0.30;;;7.10;99.90;;;;;;6218920;22;20016;-81
2023/11/07 01:33:16;;;;;;;0.30;0.30;;;7.20;99.90;;;;;;6243283;22;20031;-81
2023/11/07 01:35:43;;;;;;;0.65;0.32;;;7.20;99.90;;;;;;6243864;22;20449;-80
2023/11/07 01:38:10;;;;;;;0.40;0.30;;;7.30;99.90;;;;;;6243885;22;20032;-80
2023/11/07 01:40:37;;;;;;;0.57;0.40;;;7.30;99.90;;;;;;6270047;22;20016;-81
2023/11/07 01:43:12;;;;;;;2.75;0.90;;;7.40;99.90;;;;;;6243348;22;20020;-82
2023/11/07 01:45:39;;;;;;;1.23;0.40;;;7.40;1.00;;;;;;6218414;22;20016;-81
2023/11/07 01:48:10;;;;;;;0.70;0.30;;;7.40;28.20;;;;;;6242794;22;20077;-81
2023/11/07 01:50:38;;;;;;;0.57;0.30;;;7.40;1.00;;;;;;6219129;22;20019;-80
2023/11/07 01:53:05;;;;;;;0.80;0.60;;;7.40;1.00;;;;;;6243102;22;20023;-81
2023/11/07 01:55:32;;;;;;;1.05;0.40;;;7.50;99.90;;;;;;6243862;22;20027;-81
2023/11/07 01:58:02;;;;;;;0.40;0.28;;;7.50;99.90;;;;;;6243406;22;20062;-81
2023/11/07 02:00:29;;;;;;;0.40;0.40;;;7.60;99.90;;;;;;6244116;22;20022;-77
2023/11/07 02:03:00;;;;;;;1.27;0.50;;;7.60;93.50;;;;;;6217640;22;20024;-77
2023/11/07 02:05:27;;;;;;;0.30;0.30;;;7.60;1.00;;;;;;6218749;22;20028;-78
2023/11/07 02:07:54;;;;;;;1.30;0.60;;;7.60;1.00;;;;;;6238456;23;20095;-78
2023/11/07 02:10:21;;;;;;;0.88;0.60;;;7.60;99.90;;;;;;6214807;22;20466;-78
2023/11/07 02:12:48;;;;;;;0.40;0.40;;;7.60;99.90;;;;;;6238098;23;20020;-80
2023/11/07 02:15:27;;;;;;;1.75;0.30;;;7.60;99.90;;;;;;6213575;22;20089;-80
2023/11/07 02:17:54;;;;;;;0.50;0.40;;;7.60;99.90;;;;;;6213694;23;20042;-78
2023/11/07 02:20:22;;;;;;;0.30;0.30;;;7.60;99.90;;;;;;6215145;22;20020;-81
2023/11/07 02:22:57;;;;;;;0.90;0.30;;;7.60;98.30;;;;;;6213474;23;20020;-80
2023/11/07 02:25:24;;;;;;;0.75;0.22;;;7.50;55.40;;;;;;6216590;22;20416;-78
2023/11/07 02:27:51;;;;;;;0.20;0.20;;;7.50;99.90;;;;;;6212521;23;20016;-77
2023/11/07 02:30:18;;;;;;;0.45;0.43;;;7.50;99.90;;;;;;6213759;22;20481;-77
2023/11/07 02:32:46;;;;;;;0.60;0.40;;;7.50;99.90;;;;;;6211170;22;20447;-73
2023/11/07 02:35:13;;;;;;;0.68;0.55;;;7.50;99.90;;;;;;6238627;22;20027;-72
2023/11/07 02:37:41;;;;;;;1.05;0.50;;;7.40;99.90;;;;;;6238926;22;20047;-72
2023/11/07 02:40:11;;;;;;;0.63;0.30;;;7.40;99.90;;;;;;6217912;22;20446;-72
2023/11/07 02:42:38;;;;;;;1.05;0.50;;;7.40;99.90;;;;;;6217560;22;20015;-72
2023/11/07 02:45:05;;;;;;;0.65;0.40;;;7.40;99.90;;;;;;6217494;22;20472;-72
2023/11/07 02:47:32;;;;;;;0.40;0.32;;;7.40;99.90;;;;;;6232637;22;20650;-72
2023/11/07 02:50:05;;;;;;;0.33;0.30;;;7.40;99.90;;;;;;6216049;22;20089;-72
2023/11/07 02:52:32;;;;;;;1.27;0.30;;;7.30;64.60;;;;;;6240001;22;20468;-72
2023/11/07 02:55:00;;;;;;;0.52;0.40;;;7.30;99.90;;;;;;6240100;22;20023;-72
2023/11/07 02:57:27;;;;;;;0.63;0.20;;;7.30;99.90;;;;;;6266823;22;20043;-72
2023/11/07 02:59:53;;;;;;;0.35;0.35;;;7.20;99.90;;;;;;6239861;22;20031;-72
2023/11/07 03:02:21;;;;;;;0.47;0.28;;;7.10;99.90;;;;;;6239385;22;20019;-72
2023/11/07 03:04:48;;;;;;;0.50;0.40;;;7.10;99.90;;;;;;6268822;22;20024;-72
2023/11/07 03:07:15;;;;;;;0.20;0.20;;;7.10;1.00;;;;;;6269461;22;20023;-72
2023/11/07 03:09:41;;;;;;;0.47;0.30;;;7.10;1.00;;;;;;6242224;22;20118;-72
2023/11/07 03:12:12;;;;;;;0.90;0.50;;;7.10;1.00;;;;;;6216966;22;20016;-72
2023/11/07 03:14:41;;;;;;;0.80;0.40;;;7.10;1.00;;;;;;6242737;22;20030;-72
2023/11/07 03:17:08;;;;;;;0.82;0.40;;;7.00;1.00;;;;;;6216210;22;20023;-72
2023/11/07 03:19:34;;;;;;;1.55;0.40;;;7.00;1.00;;;;;;6241378;22;20027;-72
2023/11/07 03:22:01;;;;;;;0.30;0.22;;;6.90;1.00;;;;;;6216916;22;20020;-72
2023/11/07 03:24:28;;;;;;;0.70;0.22;;;6.90;96.60;;;;;;6199988;23;20534;-72
2023/11/07 03:26:54;;;;;;;0.50;0.50;;;6.90;99.90;;;;;;6186135;23;20024;-72
2023/11/07 03:29:21;;;;;;;0.20;0.20;;;6.90;99.90;;;;;;6212096;23;20470;-72
2023/11/07 03:31:48;;;;;;;0.50;0.30;;;6.80;99.90;;;;;;6236823;23;20085;-72
2023/11/07 03:34:16;;;;;;;0.30;0.30;;;6.80;99.90;;;;;;6211377;23;20074;-72
2023/11/07 03:36:43;;;;;;;0.43;0.28;;;6.80;99.90;;;;;;6211850;23;20055;-72
2023/11/07 03:39:10;;;;;;;0.50;0.30;;;6.80;1.00;;;;;;6212244;23;20024;-72
2023/11/07 03:41:44;;;;;;;0.75;0.30;;;6.90;1.00;;;;;;6211458;23;20027;-72
2023/11/07 03:44:12;;;;;;;0.38;0.30;;;6.90;1.00;;;;;;6238938;23;20074;-72
2023/11/07 03:46:39;;;;;;;0.50;0.22;;;6.90;1.00;;;;;;6185875;23;20346;-71
2023/11/07 03:49:07;;;;;;;0.50;0.30;;;6.90;1.00;;;;;;6186508;23;20032;-72
2023/11/07 03:51:34;;;;;;;0.63;0.50;;;6.90;1.00;;;;;;6211721;23;20035;-72
2023/11/07 03:54:00;;;;;;;0.38;0.30;;;6.90;1.00;;;;;;6211792;23;20039;-72
2023/11/07 03:56:28;;;;;;;0.68;0.30;;;6.90;99.90;;;;;;6208206;23;20024;-72
2023/11/07 03:58:55;;;;;;;0.20;0.20;;;6.90;99.90;;;;;;6186155;23;20067;-72
2023/11/07 04:01:22;;;;;;;0.30;0.30;;;6.80;99.90;;;;;;6210198;23;20319;-72
2023/11/07 04:03:49;;;;;;;0.25;0.20;;;6.80;99.90;;;;;;6210603;23;20020;-72
2023/11/07 04:06:17;;;;;;;0.30;0.30;;;6.70;99.90;;;;;;6236991;23;20016;-72
2023/11/07 04:08:44;;;;;;;0.82;0.35;;;6.70;99.90;;;;;;6211447;23;20024;-72
2023/11/07 04:11:11;;;;;;;0.30;0.30;;;6.60;99.90;;;;;;6236368;23;20039;-72
2023/11/07 04:13:37;;;;;;;0.30;0.25;;;6.60;99.90;;;;;;6210334;23;20394;-72
2023/11/07 04:16:05;;;;;;;0.20;0.20;;;6.60;1.00;;;;;;6235273;23;20078;-72
2023/11/07 04:18:31;;;;;;;0.30;0.20;;;6.60;1.00;;;;;;6184978;23;20300;-72
2023/11/07 04:20:59;;;;;;;2.03;0.40;;;6.60;1.00;;;;;;6238082;23;20031;-72
2023/11/07 04:23:26;;;;;;;0.65;0.30;;;6.60;28.70;;;;;;6211271;23;20119;-72
2023/11/07 04:25:52;;;;;;;0.30;0.30;;;6.60;99.90;;;;;;6211501;23;20076;-72
2023/11/07 04:28:20;;;;;;;0.20;0.20;;;6.60;88.10;;;;;;6210569;23;20039;-73
2023/11/07 04:30:46;;;;;;;1.55;0.50;;;6.50;99.90;;;;;;6235862;23;20343;-72
2023/11/07 04:33:14;;;;;;;0.60;0.35;;;6.50;99.90;;;;;;6210137;23;20039;-72
2023/11/07 04:35:42;;;;;;;0.45;0.30;;;6.60;99.90;;;;;;6211073;23;20020;-72
2023/11/07 04:38:09;;;;;;;0.57;0.40;;;6.60;99.90;;;;;;6211442;23;20339;-72
2023/11/07 04:40:36;;;;;;;1.30;0.30;;;6.60;99.90;;;;;;6211353;23;20039;-72
2023/11/07 04:43:03;;;;;;;0.88;0.30;;;6.60;99.90;;;;;;6186095;23;20016;-72
2023/11/07 04:45:31;;;;;;;0.77;0.50;;;6.50;99.90;;;;;;6210998;23;20159;-72
2023/11/07 04:47:58;;;;;;;0.77;0.40;;;6.60;99.90;;;;;;6210077;23;20020;-72
2023/11/07 04:50:26;;;;;;;0.73;0.43;;;6.60;99.90;;;;;;6186599;23;20027;-72
2023/11/07 04:52:53;;;;;;;0.30;0.30;;;6.60;99.90;;;;;;6236102;23;20020;-73
2023/11/07 04:55:21;;;;;;;0.50;0.35;;;6.50;99.90;;;;;;6211499;23;20095;-73
2023/11/07 04:57:52;;;;;;;0.20;0.20;;;6.50;99.90;;;;;;6185547;23;20024;-72
2023/11/07 05:00:19;;;;;;;0.55;0.30;;;6.50;99.90;;;;;;6211361;23;20324;-72
2023/11/07 05:02:46;;;;;;;0.60;0.40;;;6.50;99.90;;;;;;6234913;23;20095;-72
2023/11/07 05:05:14;;;;;;;0.30;0.20;;;6.60;99.90;;;;;;6185805;23;20070;-72
2023/11/07 05:07:41;;;;;;;0.43;0.30;;;6.60;99.90;;;;;;6236008;23;20120;-72
2023/11/07 05:10:12;;;;;;;0.30;0.20;;;6.50;99.90;;;;;;6211206;23;20028;-72
2023/11/07 05:12:39;;;;;;;0.40;0.30;;;6.50;99.90;;;;;;6211039;23;20023;-72
2023/11/07 05:15:07;;;;;;;0.20;0.20;;;6.50;99.90;;;;;;6210357;23;20139;-72
2023/11/07 05:17:35;;;;;;;0.70;0.47;;;6.50;99.90;;;;;;6210265;23;20058;-72
2023/11/07 05:20:07;;;;;;;0.30;0.30;;;6.50;99.90;;;;;;6210531;23;20020;-72
2023/11/07 05:22:34;;;;;;;0.82;0.40;;;6.50;99.90;;;;;;6186864;23;20052;-72
2023/11/07 05:25:01;;;;;;;0.40;0.32;;;6.50;99.90;;;;;;6235970;23;20027;-72
2023/11/07 05:27:28;;;;;;;0.77;0.40;;;6.50;99.90;;;;;;6185512;23;20020;-72
2023/11/07 05:29:54;;;;;;;0.40;0.40;;;6.50;99.90;;;;;;6210377;23;20020;-73
2023/11/07 05:32:21;;;;;;;0.47;0.30;;;6.50;99.90;;;;;;6234861;23;20327;-72
2023/11/07 05:34:48;;;;;;;0.32;0.30;;;6.40;99.90;;;;;;6235213;23;20142;-72
2023/11/07 05:37:16;;;;;;;0.82;0.40;;;6.40;99.90;;;;;;6235679;23;20420;-72
2023/11/07 05:39:46;;;;;;;0.50;0.38;;;6.40;99.90;;;;;;6209818;23;20027;-72
2023/11/07 05:42:13;;;;;;;0.68;0.50;;;6.40;99.90;;;;;;6234187;23;20020;-72
2023/11/07 05:44:40;;;;;;;0.68;0.30;;;6.40;99.90;;;;;;6236064;23;20067;-72
2023/11/07 05:47:07;;;;;;;1.27;0.65;;;6.40;99.90;;;;;;6209267;23;20343;-73
2023/11/07 05:49:36;;;;;;;0.30;0.20;;;6.40;99.90;;;;;;6182262;23;20024;-72
2023/11/07 05:52:04;;;;;;;0.30;0.30;;;6.40;99.90;;;;;;6233239;23;20102;-72
2023/11/07 05:54:30;;;;;;;1.00;0.40;;;6.30;99.90;;;;;;6208800;23;20589;-72
2023/11/07 05:56:57;;;;;;;0.25;0.25;;;6.30;99.90;;;;;;6207736;23;20031;-73
2023/11/07 05:59:25;;;;;;;0.82;0.40;;;6.40;1.00;;;;;;6207470;23;20529;-72
2023/11/07 06:01:53;;;;;;;0.17;0.15;;;6.40;1.00;;;;;;6233507;23;20392;-72
2023/11/07 06:04:33;;;;;;;0.57;0.32;;;6.40;1.00;;;;;;6205236;23;20060;-72
2023/11/07 06:07:01;;;;;;;0.38;0.17;;;6.40;1.00;;;;;;6181240;23;20066;-72
2023/11/07 06:09:28;;;;;;;0.50;0.30;;;6.40;1.00;;;;;;6209207;23;20473;-73
2023/11/07 06:11:58;;;;;;;0.28;0.20;;;6.40;1.00;;;;;;6183847;23;20031;-72
2023/11/07 06:14:25;;;;;;;0.20;0.20;;;6.40;1.00;;;;;;6183477;23;20059;-72
2023/11/07 06:16:53;;;;;;;0.57;0.25;;;6.40;1.00;;;;;;6207619;23;20027;-73
2023/11/07 06:19:21;;;;;;;0.77;0.30;;;6.40;1.00;;;;;;6208990;23;20055;-72
2023/11/07 06:21:49;;;;;;;0.80;0.30;;;6.40;10.40;;;;;;6205871;23;20051;-72
2023/11/07 06:24:16;;;;;;;0.30;0.30;;;6.40;30.30;;;;;;6205225;23;20028;-72
2023/11/07 06:26:43;;;;;;;0.30;0.30;;;6.40;80.90;;;;;;6179643;23;20020;-73
2023/11/07 06:29:10;;;;;;;0.30;0.20;;;6.40;99.90;;;;;;6180198;23;20032;-73
2023/11/07 06:31:45;;;;;;;0.40;0.30;;;6.40;99.90;;;;;;6183101;23;20024;-72
2023/11/07 06:34:14;;;;;;;0.20;0.20;;;6.50;99.90;;;;;;6203284;23;20024;-72
2023/11/07 06:36:41;;;;;;;0.40;0.20;;;6.50;90.50;;;;;;6205911;23;20023;-73
2023/11/07 06:39:10;;;;;;;0.20;0.20;;;6.50;85.10;;;;;;6229659;23;20028;-72
2023/11/07 06:41:38;;;;;;;0.30;0.28;;;6.50;24.80;;;;;;6216795;23;20067;-73
2023/11/07 06:44:06;;;;;;;0.10;0.10;;;6.50;1.00;;;;;;6231329;23;20032;-73
2023/11/07 06:46:33;;;;;;;0.38;0.30;;;6.50;1.00;;;;;;6202797;23;20028;-72
2023/11/07 06:49:00;;;;;;;0.57;0.20;;;6.40;1.00;;;;;;6203958;23;20023;-72
2023/11/07 06:51:28;;;;;;;0.30;0.30;;;6.40;1.00;;;;;;6204501;23;20032;-72
2023/11/07 06:53:55;;;;;;;0.35;0.25;;;6.40;1.00;;;;;;6179839;23;20388;-72
2023/11/07 06:56:22;;;;;;;0.30;0.30;;;6.40;1.00;;;;;;6205873;23;20488;-72
2023/11/07 06:58:49;;;;;;;0.50;0.38;;;6.40;1.00;;;;;;6208078;23;20090;-72
2023/11/07 07:01:16;;;;;;;0.20;0.20;;;6.30;1.00;;;;;;6205120;23;20070;-73
2023/11/07 07:03:43;;;;;;;0.68;0.30;;;6.40;1.00;;;;;;6170095;23;20023;-72
2023/11/07 07:06:11;;;;;;;0.30;0.20;;;6.40;1.00;;;;;;6221586;23;20448;-72
2023/11/07 07:08:38;;;;;;;0.40;0.30;;;6.30;1.00;;;;;;6222053;23;20071;-72
2023/11/07 07:11:05;;;;;;;0.73;0.35;;;6.30;26.20;;;;;;6206340;23;20254;-73
2023/11/07 07:13:33;;;;;;;0.93;0.30;;;6.40;25.60;;;;;;6230850;23;20028;-72
2023/11/07 07:16:00;;;;;;;0.95;0.30;;;6.40;1.00;;;;;;6206235;23;20039;-72
2023/11/07 07:18:27;;;;;;;0.15;0.15;;;6.40;7.30;;;;;;6225704;23;20082;-73
2023/11/07 07:20:55;;;;;;;0.60;0.10;;;6.40;1.00;;;;;;6200254;23;20020;-72
2023/11/07 07:23:24;;;;;;;0.30;0.30;;;6.40;1.00;;;;;;6201205;23;20368;-72
2023/11/07 07:25:59;;;;;;;0.25;0.20;;;6.40;36.00;;;;;;6204209;23;20214;-72
2023/11/07 07:28:26;;;;;;;0.95;0.45;;;6.40;36.80;;;;;;6233120;23;20024;-72
2023/11/07 07:30:54;;;;;;;0.77;0.55;;;6.40;1.00;;;;;;6233195;23;20070;-72
2023/11/07 07:33:24;;;;;;;1.10;0.40;;;6.50;1.00;;;;;;6207833;23;20333;-73
2023/11/07 07:35:51;;;;;;;0.20;0.20;;;6.50;1.00;;;;;;6210006;23;20342;-72
2023/11/07 07:38:18;;;;;;;0.20;0.20;;;6.50;1.00;;;;;;6235724;23;20023;-72
2023/11/07 07:40:45;;;;;;;0.50;0.30;;;6.50;1.00;;;;;;6207925;23;20024;-73
2023/11/07 07:43:12;;;;;;;0.30;0.30;;;6.60;1.00;;;;;;6230600;23;20323;-73
2023/11/07 07:45:42;;;;;;;0.88;0.35;;;6.60;99.90;;;;;;6230907;23;20354;-73
2023/11/07 07:48:10;;;;;;;0.77;0.35;;;6.60;99.90;;;;;;6208051;23;20530;-73
2023/11/07 07:50:42;;;;;;;0.47;0.30;;;6.60;99.90;;;;;;6211594;23;20078;-73
2023/11/07 07:53:10;;;;;;;0.75;0.35;;;6.60;99.90;;;;;;6233312;23;20126;-73
2023/11/07 07:55:43;;;;;;;0.47;0.30;;;6.70;99.90;;;;;;6207237;23;20024;-73
2023/11/07 07:58:11;;;;;;;0.60;0.22;;;6.70;1.00;;;;;;6235127;23;20094;-73
2023/11/07 08:00:38;;;;;;;0.20;0.20;;;6.70;1.00;;;;;;6235437;23;20279;-73
2023/11/07 08:03:08;;;;;;;0.20;0.20;;;6.70;99.90;;;;;;6204702;23;20032;-74
2023/11/07 08:05:39;;;;;;;0.55;0.20;;;6.70;99.90;;;;;;6232074;23;20028;-73
2023/11/07 08:08:08;;;;;;;0.65;0.32;;;6.80;99.90;;;;;;6209153;23;20050;-73
2023/11/07 08:10:35;;;;;;;0.25;0.25;;;6.80;99.90;;;;;;6210826;23;20308;-73
2023/11/07 08:13:06;;;;;;;0.30;0.22;;;6.90;99.90;;;;;;6185465;23;20031;-73
2023/11/07 08:15:35;;;;;;;0.40;0.30;;;6.90;99.90;;;;;;6210484;23;20408;-73
2023/11/07 08:18:05;;;;;;;1.02;0.30;;;7.00;98.00;;;;;;6210025;23;20028;-73
2023/11/07 08:20:34;;;;;;;0.35;0.20;;;7.00;5.20;;;;;;6209601;23;20506;-73
2023/11/07 08:23:01;;;;;;;0.30;0.30;;;7.10;1.00;;;;;;6206799;23;20020;-73
2023/11/07 08:25:28;;;;;;;0.25;0.20;;;7.10;1.00;;;;;;6231207;23;20111;-73
2023/11/07 08:27:55;;;;;;;0.38;0.20;;;7.20;1.00;;;;;;6181761;23;20024;-73
2023/11/07 08:30:25;;;;;;;0.40;0.38;;;7.20;99.90;;;;;;6206861;23;20035;-73
2023/11/07 08:32:52;;;;;;;0.10;0.10;;;7.30;99.90;;;;;;6180721;23;20020;-73
2023/11/07 08:35:19;;;;;;;0.25;0.25;;;7.30;99.90;;;;;;6232147;23;20024;-73
2023/11/07 08:37:49;;;;;;;0.20;0.20;;;7.40;99.90;;;;;;6183469;23;20016;-73
2023/11/07 08:40:18;;;;;;;0.90;0.30;;;7.40;99.90;;;;;;6210732;23;20358;-73
2023/11/07 08:42:48;;;;;;;0.95;0.32;;;7.50;99.90;;;;;;6185426;23;20020;-73
2023/11/07 08:45:15;;;;;;;0.60;0.60;;;7.60;99.90;;;;;;6185157;23;20189;-73
2023/11/07 08:47:43;;;;;;;0.30;0.30;;;7.60;99.90;;;;;;6209854;23;20327;-73
2023/11/07 08:50:12;;;;;;;0.47;0.40;;;7.70;96.90;;;;;;6185251;23;20020;-73
2023/11/07 08:52:40;;;;;;;0.63;0.20;;;7.80;1.00;;;;;;6235189;23;20074;-73
2023/11/07 08:55:08;;;;;;;0.30;0.30;;;7.80;1.00;;;;;;6235613;23;20024;-73
2023/11/07 08:57:38;;;;;;;1.05;0.32;;;7.90;99.90;;;;;;6234842;23;20201;-73
2023/11/07 09:00:10;;;;;;;0.40;0.40;;;8.00;99.90;;;;;;6210544;23;20529;-73
2023/11/07 09:02:38;;;;;;;0.63;0.43;;;8.10;99.90;;;;;;6184883;23;20027;-73
2023/11/07 09:05:06;;;;;;;1.27;0.30;;;8.20;4.60;;;;;;6209827;23;20102;-73
2023/11/07 09:07:34;;;;;;;0.77;0.47;;;8.30;1.00;;;;;;6231951;23;20095;-73
2023/11/07 09:10:02;;;;;;;0.40;0.32;;;8.50;99.90;;;;;;6179025;23;20024;-74
2023/11/07 09:12:29;;;;;;;0.40;0.40;;;8.60;99.90;;;;;;6177580;23;20203;-74
2023/11/07 09:14:56;;;;;;;1.73;0.22;;;8.70;58.30;;;;;;6226545;23;20028;-73
2023/11/07 09:17:23;;;;;;;3.65;0.50;;;8.80;1.00;;;;;;6199232;23;20024;-74
2023/11/07 09:19:50;;;;;;;2.13;0.40;;;8.80;1.00;;;;;;6201767;23;20549;-73
2023/11/07 09:22:17;;;;;;;0.30;0.30;;;8.90;1.00;;;;;;6226661;23;20020;-73
2023/11/07 09:24:43;;;;;;;1.23;0.30;;;9.00;1.00;;;;;;6200899;23;20106;-73
2023/11/07 09:27:11;;;;;;;0.15;0.15;;;9.10;1.00;;;;;;6202295;23;20031;-73
2023/11/07 09:29:38;;;;;;;0.25;0.25;;;9.10;99.90;;;;;;6228669;23;20099;-73
2023/11/07 09:32:07;;;;;;;0.50;0.30;;;9.20;99.90;;;;;;6198288;23;20024;-73
2023/11/07 09:34:37;;;;;;;0.57;0.40;;;9.30;99.90;;;;;;6202009;23;20027;-73
2023/11/07 09:37:05;;;;;;;0.82;0.43;;;9.30;99.90;;;;;;6176987;23;20516;-73
2023/11/07 09:39:32;;;;;;;0.80;0.35;;;9.40;99.90;;;;;;6202048;23;20482;-73
2023/11/07 09:41:59;;;;;;;2.05;0.70;;;9.40;99.90;;;;;;6200285;23;20442;-73
2023/11/07 09:44:27;;;;;;;0.98;0.60;;;9.60;99.90;;;;;;6229036;23;20020;-73
2023/11/07 09:46:54;;;;;;;1.70;0.60;;;9.70;99.90;;;;;;6175700;23;20023;-73
2023/11/07 09:49:21;;;;;;;2.10;0.75;;;9.80;99.90;;;;;;6201027;23;20028;-73
2023/11/07 09:51:49;;;;;;;1.50;0.68;;;9.80;99.90;;;;;;6176740;23;20027;-73
2023/11/07 09:54:19;;;;;;;1.30;0.57;;;9.90;99.90;;;;;;6202468;23;20446;-73
2023/11/07 09:56:47;;;;;;;1.77;0.80;;;9.90;99.90;;;;;;6226462;23;20043;-73
2023/11/07 09:59:30;;;;;;;0.57;0.40;;;10.00;99.90;;;;;;6200488;23;20050;-73
2023/11/07 10:01:57;;;;;;;;;;;10.00;99.90;;;;;;6175744;23;20033;-73
2023/11/07 10:04:25;;;;;;;1.27;0.40;;;10.10;99.90;;;;;;6224046;23;20014;-72
2023/11/07 10:06:52;;;;;;;0.98;0.50;;;10.10;99.90;;;;;;6203843;23;20084;-72
2023/11/07 10:09:19;;;;;;;2.25;0.77;;;10.20;99.90;;;;;;6226805;23;20054;-72
2023/11/07 10:11:49;;;;;;;1.70;0.80;;;10.30;99.90;;;;;;6206103;23;20056;-72
2023/11/07 10:14:20;;;;;;;0.80;0.50;;;10.40;99.90;;;;;;6182085;23;20103;-73
2023/11/07 10:16:52;;;;;;;0.77;0.50;;;10.50;99.90;;;;;;6205026;23;20109;-73
2023/11/07 10:19:21;;;;;;;2.75;1.20;;;10.50;99.90;;;;;;6207205;23;20488;-72
2023/11/07 10:21:48;;;;;;;2.70;1.13;;;10.60;99.90;;;;;;6207975;23;20438;-73
2023/11/07 10:24:15;;;;;;;2.13;0.75;;;10.70;99.90;;;;;;6181309;23;20050;-72
2023/11/07 10:27:00;;;;;;;1.40;0.70;;;10.70;99.90;;;;;;6180901;23;20343;-73
2023/11/07 10:29:30;;;;;;;2.40;1.15;;;10.80;99.90;;;;;;6208701;23;20051;-73
2023/11/07 10:31:58;;;;;;;1.83;0.65;;;10.80;99.90;;;;;;6184310;23;20110;-73
2023/11/07 10:34:26;;;;;;;4.15;1.00;;;10.90;99.90;;;;;;6209249;23;20024;-72
2023/11/07 10:36:53;;;;;;;1.55;0.82;;;10.90;99.90;;;;;;6209591;23;20054;-72
2023/11/07 10:39:25;;;;;;;1.58;0.63;;;11.00;99.90;;;;;;6208166;23;20199;-72
2023/11/07 10:41:55;;;;;;;1.98;0.80;;;11.00;97.50;;;;;;6230058;23;20344;-73
2023/11/07 10:44:28;;;;;;;1.77;0.80;;;11.00;94.30;;;;;;6182726;23;20119;-73
2023/11/07 10:47:00;;;;;;;1.60;0.80;;;11.00;93.60;;;;;;6181133;23;20111;-73
2023/11/07 10:49:30;;;;;;;1.67;0.65;;;11.10;92.50;;;;;;6230504;23;20056;-73
2023/11/07 10:51:57;;;;;;;1.13;0.60;;;11.10;92.80;;;;;;6205898;23;20051;-72
2023/11/07 10:54:30;;;;;;;1.98;0.70;;;11.20;92.30;;;;;;6205144;23;20027;-72
2023/11/07 10:57:07;;;;;;;1.90;0.60;;;11.20;83.80;;;;;;6207872;23;20024;-72
2023/11/07 10:59:35;;;;;;;1.17;0.52;;;11.20;77.70;;;;;;6184444;23;20066;-72
2023/11/07 11:02:02;;;;;;;1.98;0.82;;;11.30;69.60;;;;;;6183753;23;20098;-72
2023/11/07 11:04:33;;;;;;;2.17;0.75;;;11.30;65.00;;;;;;6208722;23;20521;-73
2023/11/07 11:07:06;;;;;;;1.50;0.85;;;11.30;60.00;;;;;;6184959;23;20028;-72
2023/11/07 11:09:38;;;;;;;1.50;0.70;;;11.30;73.50;;;;;;6184216;23;20095;-72
2023/11/07 11:12:06;;;;;;;2.75;1.10;;;11.40;57.20;;;;;;6183892;23;20031;-73
2023/11/07 11:14:33;;;;;;;2.15;0.90;;;11.40;58.90;;;;;;6206134;23;20373;-72
2023/11/07 11:17:17;;;;;;;1.08;0.63;;;11.50;55.00;;;;;;6203964;23;20024;-73
2023/11/07 11:19:57;;;;;;;1.30;0.50;;;11.50;52.40;;;;;;6206077;23;20191;-73
2023/11/07 11:22:50;;;;;;;1.08;0.60;;;11.50;54.20;;;;;;6205067;23;20335;-72
2023/11/07 11:25:41;;;;;;;2.33;0.90;;;11.50;51.70;;;;;;6232216;23;20027;-73
2023/11/07 11:28:08;;;;;;;0.30;0.30;;;11.60;51.70;;;;;;6231794;23;20036;-72
2023/11/07 11:30:38;;;;;;;0.88;0.60;;;11.80;52.70;;;;;;6186082;23;20048;-73
2023/11/07 11:33:11;;;;;;;0.95;0.73;;;11.90;45.00;;;;;;6185990;23;20020;-73
2023/11/07 11:35:40;;;;;;;1.73;1.00;;;12.00;42.00;;;;;;6211547;23;20019;-72
2023/11/07 11:38:12;;;;;;;2.42;1.27;;;12.10;37.20;;;;;;6208436;23;20503;-73
2023/11/07 11:40:49;;;;;;;2.10;1.38;;;12.20;32.80;;;;;;6181771;23;20020;-73
2023/11/07 11:43:18;;;;;;;3.00;1.50;;;12.40;28.70;;;;;;6235270;23;20016;-73
2023/11/07 11:45:45;;;;;;;2.72;1.55;;;12.60;25.80;;;;;;6211272;23;20078;-73
2023/11/07 11:48:13;;;;;;;2.50;1.27;;;12.70;20.50;;;;;;6210415;23;20023;-74
2023/11/07 11:50:40;;;;;;;2.72;1.20;;;12.90;17.60;;;;;;6237335;23;20095;-72
2023/11/07 11:53:09;;;;;;;2.78;1.15;;;13.00;13.30;;;;;;6236230;23;20024;-73
2023/11/07 11:55:58;;;;;;;1.60;0.88;;;13.10;9.00;;;;;;6236996;23;20513;-73
2023/11/07 11:58:31;;;;;;;2.53;0.88;;;13.20;4.50;;;;;;6210659;23;20020;-73
2023/11/07 12:01:00;;;;;;;1.95;1.00;;;13.10;1.00;;;;;;6210243;23;20052;-73
2023/11/07 12:03:48;;;;;;;2.80;1.30;;;13.30;2.50;;;;;;6206763;23;20071;-73
2023/11/07 12:06:16;;;;;;;2.92;0.90;;;13.40;1.00;;;;;;6209575;23;20390;-73
2023/11/07 12:08:43;;;;;;;1.40;0.90;;;13.40;2.50;;;;;;6231993;23;20020;-73
2023/11/07 12:11:10;;;;;;;3.53;0.95;;;13.30;1.00;;;;;;6237951;23;20031;-73
2023/11/07 12:13:38;;;;;;;1.40;0.70;;;13.40;1.00;;;;;;6235345;23;20103;-73
2023/11/07 12:16:15;;;;;;;1.67;0.70;;;13.60;1.00;;;;;;6210396;23;20031;-72
2023/11/07 12:18:46;;;;;;;0.60;0.50;;;13.70;1.00;;;;;;6235488;23;20074;-73
2023/11/07 12:21:23;;;;;;;2.30;0.65;;;14.00;1.00;;;;;;6210613;23;20369;-73
2023/11/07 12:23:54;;;;;;;1.50;0.80;;;14.00;1.00;;;;;;6232341;23;20024;-73
2023/11/07 12:26:20;;;;;;;1.58;0.60;;;13.80;1.00;;;;;;6181437;23;20537;-73
2023/11/07 12:28:47;;;;;;;1.48;0.77;;;14.00;1.00;;;;;;6207932;23;20035;-73
2023/11/07 12:31:15;;;;;;;0.88;0.40;;;14.40;1.00;;;;;;6210263;23;20047;-73
2023/11/07 12:33:51;;;;;;;1.35;0.60;;;14.60;1.00;;;;;;6208563;23;20020;-74
2023/11/07 12:36:18;;;;;;;1.05;0.60;;;14.30;1.00;;;;;;6182122;23;20099;-73
2023/11/07 12:38:45;;;;;;;0.68;0.50;;;14.30;1.00;;;;;;6184372;23;20020;-73
2023/11/07 12:41:12;;;;;;;1.10;0.50;;;14.50;1.00;;;;;;6185406;23;20093;-73
2023/11/07 12:43:40;;;;;;;0.77;0.68;;;14.80;1.00;;;;;;6210133;23;20020;-73
2023/11/07 12:46:13;;;;;;;1.88;0.80;;;14.90;1.00;;;;;;6210728;23;20016;-73
2023/11/07 12:48:39;;;;;;;1.33;0.60;;;15.10;1.00;;;;;;6234818;23;20031;-73
2023/11/07 12:51:08;;;;;;;2.60;0.95;;;14.80;1.00;;;;;;6210986;23;20024;-73
2023/11/07 12:53:48;;;;;;;1.05;0.50;;;14.60;1.00;;;;;;6224692;23;20021;-73
2023/11/07 12:56:19;;;;;;;1.15;0.70;;;14.50;1.00;;;;;;6185815;23;20030;-73
2023/11/07 12:58:46;;;;;;;1.00;0.50;;;14.20;1.00;;;;;;6235221;23;20020;-73
2023/11/07 13:01:14;;;;;;;1.45;0.50;;;14.10;1.00;;;;;;6209462;23;20020;-73
2023/11/07 13:03:40;;;;;;;1.38;0.50;;;14.60;1.00;;;;;;6209711;23;20512;-73